Terminal Aerodrome Forecast
Issued by NWS

Home | Current Version | Previous Version | Text Only | Print | Product List | Glossary On
Versions: 1 2 3 4 5 6 7 8 9 10 11 12
598
FTUS45 KABQ 270533
TAFLVS
TAF
KLVS 270533Z 2706/2806 12007KT P6SM SCT200
     FM271100 16006KT P6SM SCT030 SCT200
     FM271600 19012G18KT P6SM FEW100 SCT200
     FM272000 20018G28KT P6SM SCT070 SCT100=

USA.gov is the U.S. government's official web portal to all federal, state and local government web resources and services.